Time;durP1;ratioP1;P1;durP2;ratioP2;P2;SDS_P1;SDS_P2;PMS_P1;PMS_P2;Temp;Humidity;BMP_temperature;BMP_pressure;BME280_temperature;BME280_humidity;BME280_pressure;Samples;Min_cycle;Max_cycle;Signal;HPM_P1;HPM_P2
2022/03/29 00:02:11;;;;;;;32.85;21.65;;;;;;;;;;5091141;28;20051;-61
2022/03/29 00:04:37;;;;;;;39.72;21.90;;;;;;;;;;5086560;28;20270;-61
2022/03/29 00:07:03;;;;;;;32.10;19.98;;;;;;;;;;5085455;28;20044;-62
2022/03/29 00:09:30;;;;;;;31.83;19.67;;;;;;;;;;5086924;28;20048;-61
2022/03/29 00:11:56;;;;;;;31.17;19.50;;;;;;;;;;5099824;28;20403;-61
2022/03/29 00:14:22;;;;;;;28.02;18.77;;;;;;;;;;5106956;28;20044;-61
2022/03/29 00:16:48;;;;;;;32.28;19.38;;;;;;;;;;5106748;28;20633;-61
2022/03/29 00:19:15;;;;;;;33.38;18.65;;;;;;;;;;5106524;28;20038;-61
2022/03/29 00:21:41;;;;;;;27.88;18.48;;;;;;;;;;5104257;28;20050;-61
2022/03/29 00:24:08;;;;;;;35.42;21.23;;;;;;;;;;5106157;28;20055;-61
2022/03/29 00:26:34;;;;;;;30.95;20.35;;;;;;;;;;5106662;28;20040;-61
2022/03/29 00:29:00;;;;;;;35.42;20.02;;;;;;;;;;5106748;28;20070;-63
2022/03/29 00:31:26;;;;;;;31.80;20.50;;;;;;;;;;5102953;28;20075;-61
2022/03/29 00:33:52;;;;;;;32.90;20.70;;;;;;;;;;5086294;28;20101;-61
2022/03/29 00:36:19;;;;;;;36.33;21.90;;;;;;;;;;5085857;28;20357;-61
2022/03/29 00:38:48;;;;;;;39.97;22.00;;;;;;;;;;5086289;28;20047;-61
2022/03/29 00:41:14;;;;;;;40.72;22.15;;;;;;;;;;5089998;28;20044;-61
2022/03/29 00:43:41;;;;;;;41.83;21.15;;;;;;;;;;5106467;28;20051;-61
2022/03/29 00:46:07;;;;;;;35.75;21.10;;;;;;;;;;5106229;28;20043;-61
2022/03/29 00:48:34;;;;;;;45.13;23.13;;;;;;;;;;5106304;28;20108;-61
2022/03/29 00:51:00;;;;;;;38.42;22.33;;;;;;;;;;5103766;28;20039;-61
2022/03/29 00:53:26;;;;;;;37.90;20.35;;;;;;;;;;5085704;28;20458;-62
2022/03/29 00:55:54;;;;;;;37.95;22.23;;;;;;;;;;5085902;28;20066;-61
2022/03/29 00:58:21;;;;;;;40.53;24.08;;;;;;;;;;5085907;28;20045;-62
2022/03/29 01:00:47;;;;;;;37.25;22.30;;;;;;;;;;5099391;28;20099;-62
2022/03/29 01:03:15;;;;;;;32.88;20.67;;;;;;;;;;5106315;28;20055;-61
2022/03/29 01:05:41;;;;;;;35.88;21.15;;;;;;;;;;5105769;28;20170;-61
2022/03/29 01:08:08;;;;;;;39.50;22.58;;;;;;;;;;5105236;28;20127;-61
2022/03/29 01:10:34;;;;;;;38.70;22.88;;;;;;;;;;5094122;28;20044;-61
2022/03/29 01:13:00;;;;;;;43.28;22.10;;;;;;;;;;5085645;28;20084;-61
2022/03/29 01:15:28;;;;;;;36.72;21.55;;;;;;;;;;5097680;28;20080;-61
2022/03/29 01:17:54;;;;;;;46.35;23.48;;;;;;;;;;5094276;28;20052;-61
2022/03/29 01:20:20;;;;;;;37.17;20.60;;;;;;;;;;5085204;28;20044;-61
2022/03/29 01:22:47;;;;;;;40.95;21.60;;;;;;;;;;5084744;28;20112;-61
2022/03/29 01:25:16;;;;;;;38.20;21.98;;;;;;;;;;5085463;28;20072;-61
2022/03/29 01:27:43;;;;;;;41.90;21.80;;;;;;;;;;5091625;28;20052;-61
2022/03/29 01:30:09;;;;;;;40.22;20.80;;;;;;;;;;5105627;28;20075;-61
2022/03/29 01:32:36;;;;;;;38.85;21.20;;;;;;;;;;5105823;28;20047;-61
2022/03/29 01:35:03;;;;;;;36.35;21.90;;;;;;;;;;5105248;28;20047;-61
2022/03/29 01:37:29;;;;;;;37.10;19.13;;;;;;;;;;5099664;28;20051;-61
2022/03/29 01:39:55;;;;;;;42.47;22.02;;;;;;;;;;5085217;28;20167;-61
2022/03/29 01:42:22;;;;;;;36.78;20.45;;;;;;;;;;5084863;28;20052;-61
2022/03/29 01:44:48;;;;;;;39.17;21.27;;;;;;;;;;5084955;28;20457;-61
2022/03/29 01:47:19;;;;;;;36.30;21.65;;;;;;;;;;5087224;28;20119;-61
2022/03/29 01:49:45;;;;;;;35.42;20.38;;;;;;;;;;5105058;28;20048;-61
2022/03/29 01:52:11;;;;;;;36.03;21.08;;;;;;;;;;5099211;28;20063;-61
2022/03/29 01:54:37;;;;;;;42.53;21.63;;;;;;;;;;5084444;28;20040;-61
2022/03/29 01:57:03;;;;;;;40.90;22.98;;;;;;;;;;5084825;28;20044;-61
2022/03/29 02:00:30;;;;;;;39.60;22.30;;;;;;;;;;5104733;28;20071;-61
2022/03/29 02:02:16;;;;;;;37.72;21.98;;;;;;;;;;5104971;28;20056;-61
2022/03/29 02:04:42;;;;;;;36.65;22.25;;;;;;;;;;5104617;28;20052;-61
2022/03/29 02:07:08;;;;;;;40.63;21.67;;;;;;;;;;5101004;28;20045;-61
2022/03/29 02:09:34;;;;;;;37.60;22.52;;;;;;;;;;5084523;28;20292;-61
2022/03/29 02:12:01;;;;;;;37.13;21.42;;;;;;;;;;5084368;28;20048;-61
2022/03/29 02:14:27;;;;;;;38.25;23.15;;;;;;;;;;5084392;28;20119;-61
2022/03/29 02:16:53;;;;;;;46.03;23.65;;;;;;;;;;5084679;28;20055;-61
2022/03/29 02:19:19;;;;;;;39.42;21.45;;;;;;;;;;5104448;28;20107;-61
2022/03/29 02:21:45;;;;;;;37.65;22.15;;;;;;;;;;5103649;28;20050;-61
2022/03/29 02:24:11;;;;;;;37.63;21.98;;;;;;;;;;5104664;28;20047;-61
2022/03/29 02:26:37;;;;;;;40.72;22.80;;;;;;;;;;5103738;28;20055;-61
2022/03/29 02:29:03;;;;;;;41.42;21.60;;;;;;;;;;5102644;28;20059;-61
2022/03/29 02:31:29;;;;;;;41.53;23.92;;;;;;;;;;5104693;28;20040;-61
2022/03/29 02:33:55;;;;;;;41.80;22.35;;;;;;;;;;5104415;28;20107;-61
2022/03/29 02:36:22;;;;;;;35.55;21.50;;;;;;;;;;5103536;28;20044;-61
2022/03/29 02:38:48;;;;;;;37.00;21.60;;;;;;;;;;5088627;28;20063;-60
2022/03/29 02:41:14;;;;;;;39.28;23.23;;;;;;;;;;5083900;28;20040;-61
2022/03/29 02:43:40;;;;;;;37.38;22.58;;;;;;;;;;5084528;28;20072;-60
2022/03/29 02:46:07;;;;;;;35.80;21.58;;;;;;;;;;5083947;28;20404;-60
2022/03/29 02:48:33;;;;;;;43.10;23.77;;;;;;;;;;5096702;28;20050;-60
2022/03/29 02:50:59;;;;;;;44.20;22.30;;;;;;;;;;5103434;28;20109;-60
2022/03/29 02:53:25;;;;;;;41.92;22.98;;;;;;;;;;5104061;28;20036;-60
2022/03/29 02:55:51;;;;;;;40.60;22.92;;;;;;;;;;5103951;28;20048;-61
2022/03/29 02:58:18;;;;;;;42.45;22.77;;;;;;;;;;5104398;28;20052;-60
2022/03/29 03:00:44;;;;;;;37.35;22.70;;;;;;;;;;5091016;28;20066;-60
2022/03/29 03:03:10;;;;;;;39.55;22.55;;;;;;;;;;5083723;28;20495;-60
2022/03/29 03:05:36;;;;;;;37.85;22.88;;;;;;;;;;5083754;28;20041;-61
2022/03/29 03:08:02;;;;;;;39.67;22.67;;;;;;;;;;5084745;28;20049;-61
2022/03/29 03:10:30;;;;;;;47.53;25.25;;;;;;;;;;5083916;28;20072;-60
2022/03/29 03:12:56;;;;;;;41.42;22.38;;;;;;;;;;5084028;28;20049;-60
2022/03/29 03:15:23;;;;;;;42.65;23.13;;;;;;;;;;5083684;28;20072;-60
2022/03/29 03:17:53;;;;;;;43.72;24.00;;;;;;;;;;5083569;28;20075;-61
2022/03/29 03:20:21;;;;;;;41.42;23.77;;;;;;;;;;5091556;28;20132;-61
2022/03/29 03:22:48;;;;;;;38.22;21.92;;;;;;;;;;5103290;28;20047;-61
2022/03/29 03:25:14;;;;;;;43.47;22.40;;;;;;;;;;5103721;28;20044;-61
2022/03/29 03:27:40;;;;;;;43.58;22.90;;;;;;;;;;5104104;28;20067;-61
2022/03/29 03:30:08;;;;;;;43.20;24.08;;;;;;;;;;5104028;28;20048;-60
2022/03/29 03:32:34;;;;;;;44.97;22.88;;;;;;;;;;5103870;28;20131;-60
2022/03/29 03:35:01;;;;;;;42.00;22.83;;;;;;;;;;5091850;28;20048;-61
2022/03/29 03:37:27;;;;;;;45.00;23.38;;;;;;;;;;5082896;28;20051;-61
2022/03/29 03:39:53;;;;;;;48.70;24.17;;;;;;;;;;5083783;28;20100;-61
2022/03/29 03:42:19;;;;;;;36.40;22.83;;;;;;;;;;5087545;28;20091;-61
2022/03/29 03:44:45;;;;;;;44.88;24.50;;;;;;;;;;5107379;28;20511;-61
2022/03/29 03:47:11;;;;;;;43.22;23.92;;;;;;;;;;5107458;28;20119;-60
2022/03/29 03:49:38;;;;;;;42.80;24.20;;;;;;;;;;5107263;28;20044;-60
2022/03/29 03:52:05;;;;;;;40.30;23.58;;;;;;;;;;5090388;28;20117;-61
2022/03/29 03:54:38;;;;;;;39.78;24.27;;;;;;;;;;5087502;28;20048;-61
2022/03/29 03:57:05;;;;;;;44.35;23.40;;;;;;;;;;5087051;28;20047;-61
2022/03/29 03:59:31;;;;;;;47.15;23.90;;;;;;;;;;5086934;28;20440;-61
2022/03/29 04:01:57;;;;;;;40.47;23.73;;;;;;;;;;5087049;28;20127;-61
2022/03/29 04:04:23;;;;;;;45.70;23.73;;;;;;;;;;5087051;28;20492;-60
2022/03/29 04:06:50;;;;;;;51.00;24.90;;;;;;;;;;5085841;28;20075;-61
2022/03/29 04:09:16;;;;;;;47.40;25.63;;;;;;;;;;5091924;28;20107;-60
2022/03/29 04:11:42;;;;;;;44.83;22.83;;;;;;;;;;5107093;28;20040;-60
2022/03/29 04:14:08;;;;;;;43.60;23.15;;;;;;;;;;5106936;28;20036;-61
2022/03/29 04:16:34;;;;;;;41.75;23.17;;;;;;;;;;5106741;28;20044;-60
2022/03/29 04:19:01;;;;;;;42.60;24.95;;;;;;;;;;5106717;28;20055;-61
2022/03/29 04:21:27;;;;;;;43.08;24.73;;;;;;;;;;5105997;28;20052;-61
2022/03/29 04:23:53;;;;;;;48.00;25.10;;;;;;;;;;5107083;28;20051;-60
2022/03/29 04:26:20;;;;;;;47.65;25.60;;;;;;;;;;5106674;28;20045;-61
2022/03/29 04:28:46;;;;;;;39.30;24.42;;;;;;;;;;5106090;28;20380;-60
2022/03/29 04:31:12;;;;;;;46.28;25.80;;;;;;;;;;5086339;28;20052;-61
2022/03/29 04:33:40;;;;;;;48.90;25.63;;;;;;;;;;5092501;28;20032;-61
2022/03/29 04:36:06;;;;;;;44.90;24.73;;;;;;;;;;5105556;28;20499;-62
2022/03/29 04:38:32;;;;;;;43.13;25.20;;;;;;;;;;5106613;28;20616;-60
2022/03/29 04:40:58;;;;;;;48.35;25.90;;;;;;;;;;5106334;28;20096;-61
2022/03/29 04:43:25;;;;;;;41.53;24.08;;;;;;;;;;5095308;28;20432;-60
2022/03/29 04:45:51;;;;;;;39.28;24.23;;;;;;;;;;5085997;28;20044;-61
2022/03/29 04:48:17;;;;;;;48.58;27.30;;;;;;;;;;5086072;28;20064;-60
2022/03/29 04:50:43;;;;;;;47.05;24.70;;;;;;;;;;5103878;28;20048;-60
2022/03/29 04:53:09;;;;;;;50.45;25.45;;;;;;;;;;5105053;28;20363;-60
2022/03/29 04:55:35;;;;;;;51.70;26.15;;;;;;;;;;5106163;28;20044;-60
2022/03/29 04:58:02;;;;;;;46.42;26.75;;;;;;;;;;5088398;28;20135;-60
2022/03/29 05:00:28;;;;;;;51.58;27.58;;;;;;;;;;5085799;28;20051;-60
2022/03/29 05:02:54;;;;;;;60.17;27.17;;;;;;;;;;5085737;28;20049;-60
2022/03/29 05:05:21;;;;;;;54.22;28.52;;;;;;;;;;5085726;28;20041;-61
2022/03/29 05:07:47;;;;;;;50.88;29.08;;;;;;;;;;5084871;28;20060;-62
2022/03/29 05:10:14;;;;;;;55.65;29.40;;;;;;;;;;5085526;28;20111;-61
2022/03/29 05:12:44;;;;;;;55.75;28.42;;;;;;;;;;5085509;28;20044;-61
2022/03/29 05:15:11;;;;;;;54.03;29.08;;;;;;;;;;5085423;28;20051;-61
2022/03/29 05:17:37;;;;;;;48.47;28.00;;;;;;;;;;5095481;28;20048;-61
2022/03/29 05:20:04;;;;;;;52.53;29.08;;;;;;;;;;5104439;28;20036;-61
2022/03/29 05:22:30;;;;;;;52.20;27.75;;;;;;;;;;5104914;28;20059;-61
2022/03/29 05:24:56;;;;;;;50.28;28.42;;;;;;;;;;5105471;28;20040;-61
2022/03/29 05:27:23;;;;;;;60.08;28.88;;;;;;;;;;5105448;28;20082;-61
2022/03/29 05:29:49;;;;;;;52.03;29.27;;;;;;;;;;5105528;28;20055;-61
2022/03/29 05:32:18;;;;;;;59.38;29.60;;;;;;;;;;5105507;28;20059;-60
2022/03/29 05:34:45;;;;;;;58.00;28.83;;;;;;;;;;5105308;28;20044;-61
2022/03/29 05:37:12;;;;;;;51.08;29.02;;;;;;;;;;5104796;28;20131;-61
2022/03/29 05:39:40;;;;;;;50.38;27.92;;;;;;;;;;5095006;28;20117;-61
2022/03/29 05:42:07;;;;;;;52.00;28.50;;;;;;;;;;5093092;28;20119;-61
2022/03/29 05:44:33;;;;;;;57.83;28.50;;;;;;;;;;5095429;28;20056;-60
2022/03/29 05:49:44;;;;;;;48.28;27.20;;;;;;;;;;5084817;28;20059;-61
2022/03/29 05:52:10;;;;;;;45.28;26.60;;;;;;;;;;5084087;28;20043;-61
2022/03/29 05:54:36;;;;;;;53.58;28.45;;;;;;;;;;5084798;28;20040;-61
2022/03/29 05:57:03;;;;;;;52.78;28.00;;;;;;;;;;5084606;28;20108;-61
2022/03/29 05:59:29;;;;;;;47.55;26.77;;;;;;;;;;5084754;28;20054;-61
2022/03/29 06:01:58;;;;;;;54.60;26.65;;;;;;;;;;5084658;28;20051;-61
2022/03/29 06:04:25;;;;;;;52.58;27.67;;;;;;;;;;5083885;28;20067;-61
2022/03/29 06:06:51;;;;;;;48.97;24.97;;;;;;;;;;5082415;28;20055;-60
2022/03/29 06:09:18;;;;;;;40.17;24.27;;;;;;;;;;5088528;28;20343;-61
2022/03/29 06:11:46;;;;;;;42.22;25.70;;;;;;;;;;5104526;28;20043;-61
2022/03/29 06:14:11;;;;;;;;;;;;;;;;;;5103083;28;20032;-61
2022/03/29 06:16:38;;;;;;;55.28;24.50;;;;;;;;;;5087382;28;20111;-61
2022/03/29 06:19:04;;;;;;;59.28;25.38;;;;;;;;;;5083418;28;20049;-61
2022/03/29 06:21:30;;;;;;;49.10;24.42;;;;;;;;;;5095524;28;20098;-61
2022/03/29 06:23:56;;;;;;;48.13;25.02;;;;;;;;;;5104538;28;20048;-61
2022/03/29 06:26:22;;;;;;;45.70;25.95;;;;;;;;;;5104449;28;20123;-61
2022/03/29 06:28:48;;;;;;;45.40;26.50;;;;;;;;;;5102250;28;20044;-61
2022/03/29 06:31:14;;;;;;;46.63;25.08;;;;;;;;;;5114539;28;20071;-62
2022/03/29 06:33:41;;;;;;;53.95;26.92;;;;;;;;;;5120918;28;20047;-61
2022/03/29 06:36:07;;;;;;;52.08;25.67;;;;;;;;;;5104065;28;20048;-61
2022/03/29 06:38:33;;;;;;;46.67;26.80;;;;;;;;;;5104451;28;20040;-61
2022/03/29 06:40:59;;;;;;;52.05;27.75;;;;;;;;;;5104194;28;20051;-61
2022/03/29 06:43:25;;;;;;;47.38;26.05;;;;;;;;;;5102100;28;20036;-61
2022/03/29 06:45:52;;;;;;;52.20;25.65;;;;;;;;;;5103318;28;20107;-62
2022/03/29 06:48:18;;;;;;;42.35;26.08;;;;;;;;;;5104477;28;20575;-61
2022/03/29 06:50:44;;;;;;;54.88;28.67;;;;;;;;;;5103911;28;20044;-61
2022/03/29 06:53:10;;;;;;;53.97;29.00;;;;;;;;;;5102469;28;20408;-61
2022/03/29 06:55:36;;;;;;;49.00;26.60;;;;;;;;;;5103846;28;20112;-62
2022/03/29 06:58:03;;;;;;;46.38;25.67;;;;;;;;;;5104037;28;20126;-62
2022/03/29 07:00:29;;;;;;;47.20;25.15;;;;;;;;;;5104281;28;20155;-61
2022/03/29 07:02:55;;;;;;;53.17;26.25;;;;;;;;;;5101869;28;20044;-61
2022/03/29 07:05:22;;;;;;;44.75;24.77;;;;;;;;;;5103729;28;20055;-61
2022/03/29 07:07:48;;;;;;;45.25;25.58;;;;;;;;;;5102093;28;20470;-62
2022/03/29 07:13:01;;;;;;;48.47;25.63;;;;;;;;;;5103620;28;20052;-61
2022/03/29 07:15:27;;;;;;;45.13;24.83;;;;;;;;;;5101586;28;20040;-62
2022/03/29 07:17:54;;;;;;;55.45;25.10;;;;;;;;;;5102284;28;20055;-61
2022/03/29 07:20:20;;;;;;;45.45;24.92;;;;;;;;;;5097565;28;20032;-62
2022/03/29 07:22:47;;;;;;;50.50;24.90;;;;;;;;;;5099588;28;20083;-62
2022/03/29 07:25:14;;;;;;;46.75;24.65;;;;;;;;;;5095126;28;20044;-62
2022/03/29 07:27:40;;;;;;;47.80;26.55;;;;;;;;;;5107573;28;20048;-60
2022/03/29 07:30:07;;;;;;;46.20;24.67;;;;;;;;;;5093349;28;20036;-60
2022/03/29 07:32:34;;;;;;;47.17;25.25;;;;;;;;;;5092121;28;20049;-61
2022/03/29 07:35:00;;;;;;;45.20;22.95;;;;;;;;;;5091373;28;20040;-61
2022/03/29 07:37:26;;;;;;;43.83;24.20;;;;;;;;;;5092320;28;20050;-60
2022/03/29 07:39:53;;;;;;;43.33;23.70;;;;;;;;;;5100344;28;20047;-62
2022/03/29 07:42:22;;;;;;;49.78;24.27;;;;;;;;;;5103777;28;20068;-63
2022/03/29 07:44:50;;;;;;;48.58;22.65;;;;;;;;;;5097411;28;20048;-63
2022/03/29 07:47:19;;;;;;;40.80;22.20;;;;;;;;;;5099102;28;20036;-62
2022/03/29 07:49:46;;;;;;;36.75;20.23;;;;;;;;;;5098140;28;20044;-63
2022/03/29 07:52:13;;;;;;;35.10;21.02;;;;;;;;;;5094250;28;20041;-63
2022/03/29 07:54:40;;;;;;;40.90;19.88;;;;;;;;;;5100958;28;20052;-62
2022/03/29 07:57:08;;;;;;;43.78;21.85;;;;;;;;;;5098790;28;20051;-63
2022/03/29 07:59:35;;;;;;;37.90;19.38;;;;;;;;;;5098351;28;20051;-61
2022/03/29 08:02:02;;;;;;;33.10;18.40;;;;;;;;;;5097798;28;20048;-62
2022/03/29 08:04:29;;;;;;;45.20;19.65;;;;;;;;;;5105714;28;20040;-62
2022/03/29 08:06:55;;;;;;;36.08;18.85;;;;;;;;;;5103876;28;20048;-61
2022/03/29 08:09:21;;;;;;;31.38;18.85;;;;;;;;;;5097514;28;20044;-61
2022/03/29 08:11:47;;;;;;;34.33;19.45;;;;;;;;;;5100593;28;20040;-62
2022/03/29 08:14:14;;;;;;;44.40;19.27;;;;;;;;;;5093721;28;20562;-61
2022/03/29 08:16:41;;;;;;;39.80;16.67;;;;;;;;;;5094451;28;20436;-62
2022/03/29 08:19:07;;;;;;;34.42;17.42;;;;;;;;;;5094140;28;20041;-62
2022/03/29 08:21:49;;;;;;;34.13;16.52;;;;;;;;;;5091954;28;20346;-62
2022/03/29 08:24:23;;;;;;;30.70;15.20;;;;;;;;;;5099443;28;20040;-61
2022/03/29 08:26:49;;;;;;;40.35;15.27;;;;;;;;;;5099586;28;20393;-62
2022/03/29 08:29:16;;;;;;;39.20;14.90;;;;;;;;;;5098415;28;20048;-62
2022/03/29 08:31:47;;;;;;;34.80;14.13;;;;;;;;;;5097805;28;20032;-62
2022/03/29 08:34:14;;;;;;;39.08;14.38;;;;;;;;;;5107969;28;20869;-62
2022/03/29 08:36:41;;;;;;;34.83;13.13;;;;;;;;;;5100664;28;20047;-62
2022/03/29 08:39:07;;;;;;;30.77;13.00;;;;;;;;;;5098597;28;20048;-63
2022/03/29 08:41:38;;;;;;;27.35;12.77;;;;;;;;;;5092048;28;20103;-63
2022/03/29 08:44:06;;;;;;;30.27;11.52;;;;;;;;;;5099184;28;20043;-62
2022/03/29 08:46:38;;;;;;;29.67;11.07;;;;;;;;;;5094643;28;20106;-63
2022/03/29 08:49:04;;;;;;;27.42;11.80;;;;;;;;;;5103584;28;20091;-64
2022/03/29 08:51:30;;;;;;;29.23;11.60;;;;;;;;;;5101172;28;20040;-62
2022/03/29 08:53:57;;;;;;;26.70;11.23;;;;;;;;;;5096509;28;20446;-62
2022/03/29 08:56:23;;;;;;;22.13;8.98;;;;;;;;;;5099789;28;20051;-63
2022/03/29 08:58:49;;;;;;;32.85;10.57;;;;;;;;;;5095301;28;20060;-63
2022/03/29 09:01:19;;;;;;;27.15;10.10;;;;;;;;;;5105229;28;20044;-63
2022/03/29 09:03:46;;;;;;;23.80;9.80;;;;;;;;;;5089437;28;20048;-64
2022/03/29 09:06:12;;;;;;;32.22;10.27;;;;;;;;;;5102911;28;20078;-63
2022/03/29 09:08:42;;;;;;;36.65;10.27;;;;;;;;;;5097620;28;20055;-65
2022/03/29 09:11:08;;;;;;;24.23;9.85;;;;;;;;;;5102300;28;20048;-65
2022/03/29 09:13:34;;;;;;;25.17;10.18;;;;;;;;;;5101581;28;20048;-66
2022/03/29 09:16:01;;;;;;;29.23;10.35;;;;;;;;;;5096827;28;20052;-64
2022/03/29 09:18:29;;;;;;;25.73;9.85;;;;;;;;;;5096856;28;20068;-66
2022/03/29 09:21:14;;;;;;;28.85;8.43;;;;;;;;;;5088272;28;20133;-65
2022/03/29 09:23:40;;;;;;;23.42;9.50;;;;;;;;;;5092454;28;20080;-65
2022/03/29 09:26:07;;;;;;;33.38;9.48;;;;;;;;;;5098477;28;20095;-69
2022/03/29 09:28:37;;;;;;;31.25;10.38;;;;;;;;;;5094181;28;20388;-67
2022/03/29 09:31:16;;;;;;;24.80;9.30;;;;;;;;;;5092289;28;20072;-67
2022/03/29 09:33:43;;;;;;;28.45;9.48;;;;;;;;;;5096370;28;20051;-66
2022/03/29 09:36:12;;;;;;;16.55;8.35;;;;;;;;;;5096652;28;20051;-66
2022/03/29 09:38:43;;;;;;;20.88;8.07;;;;;;;;;;5097111;28;20462;-68
2022/03/29 09:41:21;;;;;;;21.35;8.05;;;;;;;;;;5100299;28;20084;-68
2022/03/29 09:44:02;;;;;;;23.55;8.38;;;;;;;;;;5093256;28;20040;-65
2022/03/29 09:46:28;;;;;;;21.35;8.57;;;;;;;;;;5091301;28;20054;-68
2022/03/29 09:49:01;;;;;;;22.95;10.00;;;;;;;;;;5097356;28;20043;-70
2022/03/29 09:51:28;;;;;;;30.17;9.75;;;;;;;;;;5089577;28;20072;-74
2022/03/29 09:53:56;;;;;;;27.42;10.05;;;;;;;;;;5098461;28;20519;-65
2022/03/29 09:56:31;;;;;;;34.85;10.43;;;;;;;;;;5097112;28;20511;-66
2022/03/29 09:59:04;;;;;;;30.15;9.48;;;;;;;;;;5100438;28;20055;-65
2022/03/29 10:01:31;;;;;;;21.48;8.10;;;;;;;;;;5093805;28;20042;-64
2022/03/29 10:04:01;;;;;;;21.73;7.50;;;;;;;;;;5094444;28;20101;-68
2022/03/29 10:06:28;;;;;;;24.17;8.45;;;;;;;;;;5096593;28;20044;-74
2022/03/29 10:11:43;;;;;;;24.38;8.55;;;;;;;;;;5092257;28;20040;-64
2022/03/29 10:14:13;;;;;;;29.42;9.18;;;;;;;;;;5094125;28;20608;-69
2022/03/29 10:16:39;;;;;;;22.58;7.75;;;;;;;;;;5098639;28;20056;-62
2022/03/29 10:19:07;;;;;;;20.67;7.20;;;;;;;;;;5089864;28;20368;-65
2022/03/29 10:21:33;;;;;;;21.20;8.18;;;;;;;;;;5103834;28;20044;-65
2022/03/29 10:24:00;;;;;;;22.67;6.88;;;;;;;;;;5098115;28;20044;-65
2022/03/29 10:26:27;;;;;;;19.38;7.07;;;;;;;;;;5103931;28;20543;-65
2022/03/29 10:28:53;;;;;;;26.93;9.07;;;;;;;;;;5095155;28;20118;-65
2022/03/29 10:31:26;;;;;;;25.25;7.78;;;;;;;;;;5097800;28;20040;-64
2022/03/29 10:34:12;;;;;;;16.15;5.45;;;;;;;;;;5091122;28;20047;-70
2022/03/29 10:36:57;;;;;;;22.27;7.28;;;;;;;;;;5098103;28;20058;-71
2022/03/29 10:39:23;;;;;;;23.40;6.22;;;;;;;;;;5093246;28;20056;-70
2022/03/29 10:41:50;;;;;;;24.90;6.97;;;;;;;;;;5093656;28;20123;-70
2022/03/29 10:44:16;;;;;;;21.40;7.20;;;;;;;;;;5098515;28;20043;-70
2022/03/29 10:46:45;;;;;;;23.40;7.05;;;;;;;;;;5097358;28;20048;-73
2022/03/29 10:49:24;;;;;;;22.17;7.45;;;;;;;;;;5105134;28;20040;-69
2022/03/29 10:51:55;;;;;;;22.70;7.07;;;;;;;;;;5099627;28;20565;-68
2022/03/29 10:54:38;;;;;;;19.25;6.85;;;;;;;;;;5105264;28;20095;-67
2022/03/29 10:57:25;;;;;;;25.02;6.50;;;;;;;;;;5095389;28;20082;-67
2022/03/29 11:00:07;;;;;;;25.85;6.93;;;;;;;;;;5090147;28;20123;-70
2022/03/29 11:02:33;;;;;;;25.02;7.13;;;;;;;;;;5097856;28;20069;-64
2022/03/29 11:05:03;;;;;;;22.20;6.85;;;;;;;;;;5093982;28;20048;-70
2022/03/29 11:07:30;;;;;;;26.48;7.18;;;;;;;;;;5086790;28;20048;-68
2022/03/29 11:10:19;;;;;;;22.35;6.57;;;;;;;;;;5086763;28;20063;-69
2022/03/29 11:12:45;;;;;;;26.02;7.72;;;;;;;;;;5082048;28;20048;-68
2022/03/29 11:15:35;;;;;;;21.02;6.30;;;;;;;;;;5088035;28;20067;-69
2022/03/29 11:18:04;;;;;;;25.67;7.93;;;;;;;;;;5084912;28;20527;-64
2022/03/29 11:20:34;;;;;;;19.92;7.22;;;;;;;;;;5086713;28;20036;-65
2022/03/29 11:23:02;;;;;;;18.50;7.00;;;;;;;;;;5091953;28;20127;-67
2022/03/29 11:25:28;;;;;;;14.60;6.72;;;;;;;;;;5087537;28;20198;-68
2022/03/29 11:28:04;;;;;;;24.52;7.60;;;;;;;;;;5089605;28;20067;-73
2022/03/29 11:30:30;;;;;;;23.10;6.80;;;;;;;;;;5084220;28;20512;-68
2022/03/29 11:32:58;;;;;;;25.17;7.32;;;;;;;;;;5092706;28;20128;-67
2022/03/29 11:35:26;;;;;;;16.17;6.38;;;;;;;;;;5087726;28;20080;-70
2022/03/29 11:37:53;;;;;;;26.25;8.00;;;;;;;;;;5120186;28;20055;-70
2022/03/29 11:40:19;;;;;;;;;;;;;;;;;;5093511;28;20052;-70
2022/03/29 11:42:47;;;;;;;21.48;7.95;;;;;;;;;;5095863;28;19939;-70
2022/03/29 11:45:14;;;;;;;23.08;6.57;;;;;;;;;;5097826;28;20045;-70
2022/03/29 11:47:41;;;;;;;29.45;7.70;;;;;;;;;;5088646;28;20040;-65
2022/03/29 11:50:07;;;;;;;19.38;7.22;;;;;;;;;;5094497;28;20076;-68
2022/03/29 11:52:34;;;;;;;21.80;6.82;;;;;;;;;;5092009;28;20048;-67
2022/03/29 11:55:00;;;;;;;25.43;7.67;;;;;;;;;;5092278;28;20036;-68
2022/03/29 11:57:28;;;;;;;17.90;6.85;;;;;;;;;;5094586;28;20309;-67
2022/03/29 11:59:55;;;;;;;18.23;7.65;;;;;;;;;;5094517;28;20047;-67
2022/03/29 12:02:23;;;;;;;26.15;7.90;;;;;;;;;;5091222;28;20036;-67
2022/03/29 12:04:50;;;;;;;28.48;7.65;;;;;;;;;;5104025;28;20403;-68
2022/03/29 12:07:17;;;;;;;22.27;6.77;;;;;;;;;;5103991;28;20045;-66
2022/03/29 12:09:47;;;;;;;20.60;7.20;;;;;;;;;;5098749;28;20294;-67
2022/03/29 12:12:13;;;;;;;26.13;7.55;;;;;;;;;;5099814;28;20032;-67
2022/03/29 12:14:39;;;;;;;28.92;8.07;;;;;;;;;;5096223;28;20089;-67
2022/03/29 12:17:08;;;;;;;27.83;8.38;;;;;;;;;;5100094;28;20048;-67
2022/03/29 12:19:35;;;;;;;24.98;8.15;;;;;;;;;;5105409;28;20107;-66
2022/03/29 12:22:06;;;;;;;22.65;8.50;;;;;;;;;;5105409;28;20044;-67
2022/03/29 12:24:37;;;;;;;33.42;9.20;;;;;;;;;;5097982;28;20063;-67
2022/03/29 12:27:12;;;;;;;22.88;8.32;;;;;;;;;;5103045;28;20051;-67
2022/03/29 12:29:50;;;;;;;24.65;8.85;;;;;;;;;;5095768;28;20040;-67
2022/03/29 12:32:16;;;;;;;28.25;8.95;;;;;;;;;;5098254;28;20052;-67
2022/03/29 12:34:43;;;;;;;22.50;8.50;;;;;;;;;;5101444;28;20075;-67
2022/03/29 12:37:16;;;;;;;21.73;7.85;;;;;;;;;;5093848;28;20102;-67
2022/03/29 12:39:43;;;;;;;24.35;8.50;;;;;;;;;;5096508;28;20055;-67
2022/03/29 12:42:11;;;;;;;22.02;9.20;;;;;;;;;;5098741;28;20515;-66
2022/03/29 12:44:43;;;;;;;23.10;8.90;;;;;;;;;;5102378;28;20096;-68
2022/03/29 12:47:10;;;;;;;26.45;10.43;;;;;;;;;;5094264;28;20051;-67
2022/03/29 12:49:38;;;;;;;22.40;8.95;;;;;;;;;;5092480;28;20040;-68
2022/03/29 12:52:05;;;;;;;27.63;9.60;;;;;;;;;;5104302;28;20075;-66
2022/03/29 12:54:41;;;;;;;35.25;10.13;;;;;;;;;;5105412;28;20519;-68
2022/03/29 12:57:08;;;;;;;28.55;10.82;;;;;;;;;;5098129;28;20048;-66
2022/03/29 12:59:40;;;;;;;26.40;9.38;;;;;;;;;;5096951;28;20115;-67
2022/03/29 13:02:22;;;;;;;21.15;10.20;;;;;;;;;;5092539;28;20046;-66
2022/03/29 13:04:51;;;;;;;23.75;9.52;;;;;;;;;;5100731;28;20040;-66
2022/03/29 13:07:49;;;;;;;21.55;9.75;;;;;;;;;;5096448;28;20094;-66
2022/03/29 13:10:16;;;;;;;23.58;9.40;;;;;;;;;;5082191;28;20705;-66
2022/03/29 13:12:48;;;;;;;20.88;9.27;;;;;;;;;;5082204;28;20535;-66
2022/03/29 13:15:34;;;;;;;20.73;8.82;;;;;;;;;;5075705;28;20052;-66
2022/03/29 13:18:01;;;;;;;19.02;8.98;;;;;;;;;;5078402;28;20055;-66
2022/03/29 13:20:27;;;;;;;24.08;10.20;;;;;;;;;;5080537;28;20186;-67
2022/03/29 13:22:53;;;;;;;21.45;9.60;;;;;;;;;;5079180;28;20108;-67
2022/03/29 13:25:33;;;;;;;18.08;9.50;;;;;;;;;;5080699;28;20159;-67
2022/03/29 13:27:59;;;;;;;22.75;8.45;;;;;;;;;;5063631;28;20316;-67
2022/03/29 13:30:25;;;;;;;17.33;8.67;;;;;;;;;;5082659;28;20104;-67
2022/03/29 13:32:52;;;;;;;19.13;9.15;;;;;;;;;;5096256;28;20204;-67
2022/03/29 13:35:19;;;;;;;25.13;9.60;;;;;;;;;;5080130;28;20151;-67
2022/03/29 13:37:45;;;;;;;22.95;9.38;;;;;;;;;;5081072;28;20111;-67
2022/03/29 13:40:12;;;;;;;20.75;9.27;;;;;;;;;;5079764;28;20056;-67
2022/03/29 13:42:38;;;;;;;20.57;9.10;;;;;;;;;;5096663;28;20051;-67
2022/03/29 13:45:04;;;;;;;26.95;9.05;;;;;;;;;;5064849;28;20762;-67
2022/03/29 13:47:34;;;;;;;18.92;9.23;;;;;;;;;;5096254;28;20087;-68
2022/03/29 13:50:00;;;;;;;22.08;9.43;;;;;;;;;;5095810;28;20408;-68
2022/03/29 13:52:26;;;;;;;24.05;9.95;;;;;;;;;;5093907;28;20086;-67
2022/03/29 13:54:53;;;;;;;23.60;9.77;;;;;;;;;;5102982;28;20064;-67
2022/03/29 13:57:19;;;;;;;18.40;8.55;;;;;;;;;;5106072;28;20051;-68
2022/03/29 13:59:45;;;;;;;23.77;9.18;;;;;;;;;;5102303;28;20127;-67
2022/03/29 14:02:11;;;;;;;18.83;8.55;;;;;;;;;;5103674;28;20086;-68
2022/03/29 14:04:37;;;;;;;17.25;7.78;;;;;;;;;;5097620;28;20098;-67
2022/03/29 14:07:04;;;;;;;21.27;9.80;;;;;;;;;;5090743;28;20041;-68
2022/03/29 14:09:30;;;;;;;20.88;10.15;;;;;;;;;;5094055;28;20056;-66
2022/03/29 14:11:56;;;;;;;26.30;8.88;;;;;;;;;;5093364;28;20036;-67
2022/03/29 14:14:23;;;;;;;23.63;9.18;;;;;;;;;;5098101;28;20054;-65
2022/03/29 14:16:49;;;;;;;22.57;8.67;;;;;;;;;;5102465;28;20044;-67
2022/03/29 14:19:16;;;;;;;19.00;8.57;;;;;;;;;;5099544;28;20339;-67
2022/03/29 14:21:42;;;;;;;16.75;8.20;;;;;;;;;;5093853;28;20047;-66
2022/03/29 14:24:08;;;;;;;22.38;8.82;;;;;;;;;;5095809;28;20108;-68
2022/03/29 14:26:34;;;;;;;20.92;9.00;;;;;;;;;;5094176;28;20066;-68
2022/03/29 14:29:00;;;;;;;26.02;9.85;;;;;;;;;;5089962;28;20040;-68
2022/03/29 14:31:27;;;;;;;18.83;9.52;;;;;;;;;;5096925;28;20040;-68
2022/03/29 14:33:55;;;;;;;28.10;9.95;;;;;;;;;;5095483;28;20103;-68